sensor_id;sensor_type;location;lat;lon;timestamp;P1;durP1;ratioP1;P2;durP2;ratioP2
67986;SDS011;54767;53.800;15.956;2023-05-21T00:06:39;11.60;;;7.90;;
67986;SDS011;54767;53.800;15.956;2023-05-21T00:09:08;10.30;;;7.70;;
67986;SDS011;54767;53.800;15.956;2023-05-21T00:11:43;11.80;;;8.30;;
67986;SDS011;54767;53.800;15.956;2023-05-21T00:14:12;10.30;;;7.90;;
67986;SDS011;54767;53.800;15.956;2023-05-21T00:17:02;11.30;;;7.70;;
67986;SDS011;54767;53.800;15.956;2023-05-21T00:19:30;13.10;;;7.80;;
67986;SDS011;54767;53.800;15.956;2023-05-21T00:24:56;10.60;;;7.40;;
67986;SDS011;54767;53.800;15.956;2023-05-21T00:27:28;10.50;;;7.40;;
67986;SDS011;54767;53.800;15.956;2023-05-21T00:30:05;9.90;;;7.40;;
67986;SDS011;54767;53.800;15.956;2023-05-21T00:32:32;9.70;;;7.00;;
67986;SDS011;54767;53.800;15.956;2023-05-21T00:34:59;11.60;;;7.50;;
67986;SDS011;54767;53.800;15.956;2023-05-21T00:37:27;9.10;;;6.90;;
67986;SDS011;54767;53.800;15.956;2023-05-21T00:40:01;10.30;;;6.60;;
67986;SDS011;54767;53.800;15.956;2023-05-21T00:42:31;10.30;;;7.00;;
67986;SDS011;54767;53.800;15.956;2023-05-21T00:44:58;10.10;;;7.10;;
67986;SDS011;54767;53.800;15.956;2023-05-21T00:47:25;11.30;;;6.80;;
67986;SDS011;54767;53.800;15.956;2023-05-21T00:49:54;12.00;;;7.00;;
67986;SDS011;54767;53.800;15.956;2023-05-21T00:52:22;10.30;;;7.10;;
67986;SDS011;54767;53.800;15.956;2023-05-21T00:54:52;8.50;;;7.00;;
67986;SDS011;54767;53.800;15.956;2023-05-21T00:57:19;11.30;;;7.00;;
67986;SDS011;54767;53.800;15.956;2023-05-21T00:59:49;9.30;;;6.90;;
67986;SDS011;54767;53.800;15.956;2023-05-21T01:02:17;10.10;;;6.90;;
67986;SDS011;54767;53.800;15.956;2023-05-21T01:04:44;8.50;;;7.00;;
67986;SDS011;54767;53.800;15.956;2023-05-21T01:07:11;9.30;;;7.00;;
67986;SDS011;54767;53.800;15.956;2023-05-21T01:09:40;9.40;;;6.80;;
67986;SDS011;54767;53.800;15.956;2023-05-21T01:12:08;9.10;;;6.90;;
67986;SDS011;54767;53.800;15.956;2023-05-21T01:14:40;12.90;;;7.30;;
67986;SDS011;54767;53.800;15.956;2023-05-21T01:17:07;11.00;;;6.70;;
67986;SDS011;54767;53.800;15.956;2023-05-21T01:19:35;11.00;;;7.10;;
67986;SDS011;54767;53.800;15.956;2023-05-21T01:22:04;9.70;;;7.00;;
67986;SDS011;54767;53.800;15.956;2023-05-21T01:24:32;10.20;;;6.80;;
67986;SDS011;54767;53.800;15.956;2023-05-21T01:27:01;8.70;;;6.30;;
67986;SDS011;54767;53.800;15.956;2023-05-21T01:29:32;9.90;;;6.50;;
67986;SDS011;54767;53.800;15.956;2023-05-21T01:35:06;10.10;;;7.10;;
67986;SDS011;54767;53.800;15.956;2023-05-21T01:37:36;11.60;;;7.40;;
67986;SDS011;54767;53.800;15.956;2023-05-21T01:40:12;9.10;;;7.00;;
67986;SDS011;54767;53.800;15.956;2023-05-21T01:42:43;11.30;;;7.70;;
67986;SDS011;54767;53.800;15.956;2023-05-21T01:45:12;11.60;;;7.50;;
67986;SDS011;54767;53.800;15.956;2023-05-21T01:47:42;10.10;;;7.30;;
67986;SDS011;54767;53.800;15.956;2023-05-21T01:50:13;8.70;;;6.70;;
67986;SDS011;54767;53.800;15.956;2023-05-21T01:53:14;10.20;;;6.70;;
67986;SDS011;54767;53.800;15.956;2023-05-21T01:55:34;9.70;;;7.00;;
67986;SDS011;54767;53.800;15.956;2023-05-21T01:58:04;12.60;;;7.20;;
67986;SDS011;54767;53.800;15.956;2023-05-21T02:00:31;9.90;;;7.20;;
67986;SDS011;54767;53.800;15.956;2023-05-21T02:03:00;9.30;;;7.30;;
67986;SDS011;54767;53.800;15.956;2023-05-21T02:05:27;9.30;;;7.40;;
67986;SDS011;54767;53.800;15.956;2023-05-21T02:07:54;9.30;;;7.20;;
67986;SDS011;54767;53.800;15.956;2023-05-21T02:10:21;11.70;;;7.90;;
67986;SDS011;54767;53.800;15.956;2023-05-21T02:12:48;11.00;;;7.80;;
67986;SDS011;54767;53.800;15.956;2023-05-21T02:15:15;11.00;;;7.30;;
67986;SDS011;54767;53.800;15.956;2023-05-21T02:20:12;11.10;;;7.50;;
67986;SDS011;54767;53.800;15.956;2023-05-21T02:22:41;12.00;;;8.10;;
67986;SDS011;54767;53.800;15.956;2023-05-21T02:25:09;11.70;;;7.80;;
67986;SDS011;54767;53.800;15.956;2023-05-21T02:27:38;11.20;;;8.10;;
67986;SDS011;54767;53.800;15.956;2023-05-21T02:30:06;11.20;;;7.90;;
67986;SDS011;54767;53.800;15.956;2023-05-21T02:32:35;12.40;;;7.90;;
67986;SDS011;54767;53.800;15.956;2023-05-21T02:35:03;10.50;;;7.20;;
67986;SDS011;54767;53.800;15.956;2023-05-21T02:37:30;12.40;;;7.80;;
67986;SDS011;54767;53.800;15.956;2023-05-21T02:40:01;13.00;;;8.30;;
67986;SDS011;54767;53.800;15.956;2023-05-21T02:42:29;14.00;;;7.90;;
67986;SDS011;54767;53.800;15.956;2023-05-21T02:44:56;13.60;;;8.00;;
67986;SDS011;54767;53.800;15.956;2023-05-21T02:47:23;11.00;;;8.20;;
67986;SDS011;54767;53.800;15.956;2023-05-21T02:49:51;12.00;;;8.10;;
67986;SDS011;54767;53.800;15.956;2023-05-21T02:52:18;12.80;;;8.40;;
67986;SDS011;54767;53.800;15.956;2023-05-21T02:54:50;10.00;;;7.70;;
67986;SDS011;54767;53.800;15.956;2023-05-21T02:57:17;10.20;;;7.80;;
67986;SDS011;54767;53.800;15.956;2023-05-21T02:59:44;13.30;;;8.70;;
67986;SDS011;54767;53.800;15.956;2023-05-21T03:02:11;14.10;;;8.90;;
67986;SDS011;54767;53.800;15.956;2023-05-21T03:04:38;13.30;;;8.80;;
67986;SDS011;54767;53.800;15.956;2023-05-21T03:07:12;12.00;;;8.30;;
67986;SDS011;54767;53.800;15.956;2023-05-21T03:09:40;11.10;;;8.40;;
67986;SDS011;54767;53.800;15.956;2023-05-21T03:12:08;14.70;;;7.90;;
67986;SDS011;54767;53.800;15.956;2023-05-21T03:14:36;13.80;;;8.70;;
67986;SDS011;54767;53.800;15.956;2023-05-21T03:17:03;14.50;;;8.50;;
67986;SDS011;54767;53.800;15.956;2023-05-21T03:19:34;12.20;;;8.30;;
67986;SDS011;54767;53.800;15.956;2023-05-21T03:22:02;12.00;;;8.90;;
67986;SDS011;54767;53.800;15.956;2023-05-21T03:24:30;15.30;;;11.40;;
67986;SDS011;54767;53.800;15.956;2023-05-21T03:26:58;18.60;;;14.50;;
67986;SDS011;54767;53.800;15.956;2023-05-21T03:29:27;16.20;;;11.50;;
67986;SDS011;54767;53.800;15.956;2023-05-21T03:31:54;15.10;;;8.90;;
67986;SDS011;54767;53.800;15.956;2023-05-21T03:34:21;16.20;;;10.20;;
67986;SDS011;54767;53.800;15.956;2023-05-21T03:36:49;18.00;;;10.80;;
67986;SDS011;54767;53.800;15.956;2023-05-21T03:39:16;12.60;;;9.10;;
67986;SDS011;54767;53.800;15.956;2023-05-21T03:41:43;12.90;;;8.90;;
67986;SDS011;54767;53.800;15.956;2023-05-21T03:44:10;12.80;;;9.00;;
67986;SDS011;54767;53.800;15.956;2023-05-21T03:46:37;11.40;;;8.40;;
67986;SDS011;54767;53.800;15.956;2023-05-21T03:49:04;12.40;;;8.80;;
67986;SDS011;54767;53.800;15.956;2023-05-21T03:51:31;13.50;;;8.80;;
67986;SDS011;54767;53.800;15.956;2023-05-21T03:53:58;11.90;;;8.40;;
67986;SDS011;54767;53.800;15.956;2023-05-21T03:56:26;11.80;;;8.90;;
67986;SDS011;54767;53.800;15.956;2023-05-21T03:58:53;13.70;;;8.70;;
67986;SDS011;54767;53.800;15.956;2023-05-21T04:01:20;12.70;;;9.40;;
67986;SDS011;54767;53.800;15.956;2023-05-21T04:03:47;13.70;;;8.90;;
67986;SDS011;54767;53.800;15.956;2023-05-21T04:06:15;12.90;;;8.80;;
67986;SDS011;54767;53.800;15.956;2023-05-21T04:08:42;11.80;;;8.70;;
67986;SDS011;54767;53.800;15.956;2023-05-21T04:11:09;11.70;;;9.00;;
67986;SDS011;54767;53.800;15.956;2023-05-21T04:13:37;11.90;;;8.60;;
67986;SDS011;54767;53.800;15.956;2023-05-21T04:16:04;11.50;;;9.20;;
67986;SDS011;54767;53.800;15.956;2023-05-21T04:18:34;12.10;;;9.10;;
67986;SDS011;54767;53.800;15.956;2023-05-21T04:21:01;15.90;;;9.60;;
67986;SDS011;54767;53.800;15.956;2023-05-21T04:23:28;13.30;;;8.80;;
67986;SDS011;54767;53.800;15.956;2023-05-21T04:25:55;11.80;;;9.30;;
67986;SDS011;54767;53.800;15.956;2023-05-21T04:28:22;13.30;;;9.30;;
67986;SDS011;54767;53.800;15.956;2023-05-21T04:30:49;11.90;;;8.60;;
67986;SDS011;54767;53.800;15.956;2023-05-21T04:33:16;12.50;;;9.20;;
67986;SDS011;54767;53.800;15.956;2023-05-21T04:35:46;12.50;;;9.30;;
67986;SDS011;54767;53.800;15.956;2023-05-21T04:38:15;11.90;;;8.60;;
67986;SDS011;54767;53.800;15.956;2023-05-21T04:40:46;13.30;;;9.30;;
67986;SDS011;54767;53.800;15.956;2023-05-21T04:43:16;12.20;;;9.40;;
67986;SDS011;54767;53.800;15.956;2023-05-21T04:45:44;13.20;;;9.80;;
67986;SDS011;54767;53.800;15.956;2023-05-21T04:48:11;13.80;;;9.40;;
67986;SDS011;54767;53.800;15.956;2023-05-21T04:50:38;11.40;;;8.80;;
67986;SDS011;54767;53.800;15.956;2023-05-21T04:53:06;12.70;;;9.70;;
67986;SDS011;54767;53.800;15.956;2023-05-21T04:55:34;12.90;;;9.00;;
67986;SDS011;54767;53.800;15.956;2023-05-21T04:58:05;15.10;;;9.20;;
67986;SDS011;54767;53.800;15.956;2023-05-21T05:00:38;12.30;;;8.90;;
67986;SDS011;54767;53.800;15.956;2023-05-21T05:03:07;11.70;;;8.80;;
67986;SDS011;54767;53.800;15.956;2023-05-21T05:05:34;11.60;;;9.50;;
67986;SDS011;54767;53.800;15.956;2023-05-21T05:08:02;14.10;;;9.40;;
67986;SDS011;54767;53.800;15.956;2023-05-21T05:10:29;11.60;;;9.30;;
67986;SDS011;54767;53.800;15.956;2023-05-21T05:12:56;10.60;;;8.90;;
67986;SDS011;54767;53.800;15.956;2023-05-21T05:15:23;12.10;;;9.50;;
67986;SDS011;54767;53.800;15.956;2023-05-21T05:17:51;12.50;;;9.60;;
67986;SDS011;54767;53.800;15.956;2023-05-21T05:20:20;12.70;;;9.50;;
67986;SDS011;54767;53.800;15.956;2023-05-21T05:22:47;12.90;;;9.30;;
67986;SDS011;54767;53.800;15.956;2023-05-21T05:25:13;13.00;;;9.00;;
67986;SDS011;54767;53.800;15.956;2023-05-21T05:27:40;12.60;;;9.00;;
67986;SDS011;54767;53.800;15.956;2023-05-21T05:30:08;11.80;;;9.40;;
67986;SDS011;54767;53.800;15.956;2023-05-21T05:32:35;12.20;;;9.20;;
67986;SDS011;54767;53.800;15.956;2023-05-21T05:35:02;12.30;;;9.40;;
67986;SDS011;54767;53.800;15.956;2023-05-21T05:37:29;11.90;;;8.90;;
67986;SDS011;54767;53.800;15.956;2023-05-21T05:39:56;12.70;;;9.40;;
67986;SDS011;54767;53.800;15.956;2023-05-21T05:42:23;14.00;;;9.60;;
67986;SDS011;54767;53.800;15.956;2023-05-21T05:44:50;12.20;;;8.80;;
67986;SDS011;54767;53.800;15.956;2023-05-21T05:47:17;12.00;;;9.40;;
67986;SDS011;54767;53.800;15.956;2023-05-21T05:49:44;11.10;;;8.90;;
67986;SDS011;54767;53.800;15.956;2023-05-21T05:52:11;13.00;;;9.50;;
67986;SDS011;54767;53.800;15.956;2023-05-21T05:54:38;11.50;;;8.40;;
67986;SDS011;54767;53.800;15.956;2023-05-21T05:57:05;12.70;;;9.50;;
67986;SDS011;54767;53.800;15.956;2023-05-21T05:59:32;13.30;;;9.30;;
67986;SDS011;54767;53.800;15.956;2023-05-21T06:01:59;11.10;;;9.50;;
67986;SDS011;54767;53.800;15.956;2023-05-21T06:04:26;12.20;;;9.50;;
67986;SDS011;54767;53.800;15.956;2023-05-21T06:06:55;11.90;;;9.60;;
67986;SDS011;54767;53.800;15.956;2023-05-21T06:09:26;11.70;;;9.20;;
67986;SDS011;54767;53.800;15.956;2023-05-21T06:11:52;10.00;;;8.90;;
67986;SDS011;54767;53.800;15.956;2023-05-21T06:14:20;12.00;;;9.20;;
67986;SDS011;54767;53.800;15.956;2023-05-21T06:16:46;12.70;;;9.50;;
67986;SDS011;54767;53.800;15.956;2023-05-21T06:19:13;10.50;;;9.10;;
67986;SDS011;54767;53.800;15.956;2023-05-21T06:21:41;12.80;;;9.30;;
67986;SDS011;54767;53.800;15.956;2023-05-21T06:24:08;11.20;;;9.20;;
67986;SDS011;54767;53.800;15.956;2023-05-21T06:26:35;11.30;;;9.10;;
67986;SDS011;54767;53.800;15.956;2023-05-21T06:29:02;12.10;;;9.40;;
67986;SDS011;54767;53.800;15.956;2023-05-21T06:31:29;10.30;;;9.00;;
67986;SDS011;54767;53.800;15.956;2023-05-21T06:33:58;10.20;;;8.90;;
67986;SDS011;54767;53.800;15.956;2023-05-21T06:36:26;12.20;;;9.30;;
67986;SDS011;54767;53.800;15.956;2023-05-21T06:38:55;11.50;;;8.80;;
67986;SDS011;54767;53.800;15.956;2023-05-21T06:41:22;13.00;;;9.10;;
67986;SDS011;54767;53.800;15.956;2023-05-21T06:43:49;10.50;;;8.60;;
67986;SDS011;54767;53.800;15.956;2023-05-21T06:46:16;11.40;;;8.40;;
67986;SDS011;54767;53.800;15.956;2023-05-21T06:48:44;9.90;;;7.70;;
67986;SDS011;54767;53.800;15.956;2023-05-21T06:51:12;10.30;;;7.90;;
67986;SDS011;54767;53.800;15.956;2023-05-21T06:53:39;9.30;;;7.60;;
67986;SDS011;54767;53.800;15.956;2023-05-21T06:56:06;9.70;;;7.90;;
67986;SDS011;54767;53.800;15.956;2023-05-21T06:58:33;9.90;;;7.80;;
67986;SDS011;54767;53.800;15.956;2023-05-21T07:01:00;10.70;;;7.70;;
67986;SDS011;54767;53.800;15.956;2023-05-21T07:03:28;8.50;;;7.20;;
67986;SDS011;54767;53.800;15.956;2023-05-21T07:05:56;9.20;;;7.40;;
67986;SDS011;54767;53.800;15.956;2023-05-21T07:08:23;10.40;;;7.50;;
67986;SDS011;54767;53.800;15.956;2023-05-21T07:10:50;11.40;;;8.70;;
67986;SDS011;54767;53.800;15.956;2023-05-21T07:13:17;9.50;;;7.60;;
67986;SDS011;54767;53.800;15.956;2023-05-21T07:15:44;9.60;;;7.00;;
67986;SDS011;54767;53.800;15.956;2023-05-21T07:18:11;11.30;;;7.60;;
67986;SDS011;54767;53.800;15.956;2023-05-21T07:20:39;9.10;;;7.20;;
67986;SDS011;54767;53.800;15.956;2023-05-21T07:23:07;9.20;;;7.40;;
67986;SDS011;54767;53.800;15.956;2023-05-21T07:25:34;9.30;;;6.50;;
67986;SDS011;54767;53.800;15.956;2023-05-21T07:28:02;8.20;;;6.50;;
67986;SDS011;54767;53.800;15.956;2023-05-21T07:30:32;8.50;;;6.80;;
67986;SDS011;54767;53.800;15.956;2023-05-21T07:32:59;8.20;;;6.10;;
67986;SDS011;54767;53.800;15.956;2023-05-21T07:35:26;7.70;;;5.90;;
67986;SDS011;54767;53.800;15.956;2023-05-21T07:37:54;9.20;;;6.30;;
67986;SDS011;54767;53.800;15.956;2023-05-21T07:40:21;6.30;;;5.60;;
67986;SDS011;54767;53.800;15.956;2023-05-21T07:42:48;7.60;;;6.10;;
67986;SDS011;54767;53.800;15.956;2023-05-21T07:45:16;8.80;;;5.60;;
67986;SDS011;54767;53.800;15.956;2023-05-21T07:47:43;10.20;;;5.90;;
67986;SDS011;54767;53.800;15.956;2023-05-21T07:50:12;7.00;;;5.50;;
67986;SDS011;54767;53.800;15.956;2023-05-21T07:52:39;6.60;;;5.50;;
67986;SDS011;54767;53.800;15.956;2023-05-21T07:55:07;7.70;;;5.60;;
67986;SDS011;54767;53.800;15.956;2023-05-21T07:57:34;6.80;;;5.40;;
67986;SDS011;54767;53.800;15.956;2023-05-21T08:00:02;6.10;;;5.40;;
67986;SDS011;54767;53.800;15.956;2023-05-21T08:02:32;6.50;;;5.30;;
67986;SDS011;54767;53.800;15.956;2023-05-21T08:05:00;8.10;;;6.00;;
67986;SDS011;54767;53.800;15.956;2023-05-21T08:07:27;12.70;;;5.30;;
67986;SDS011;54767;53.800;15.956;2023-05-21T08:09:55;6.80;;;5.10;;
67986;SDS011;54767;53.800;15.956;2023-05-21T08:12:24;7.50;;;5.30;;
67986;SDS011;54767;53.800;15.956;2023-05-21T08:14:51;8.60;;;5.90;;
67986;SDS011;54767;53.800;15.956;2023-05-21T08:17:18;6.50;;;5.70;;
67986;SDS011;54767;53.800;15.956;2023-05-21T08:19:45;6.30;;;5.40;;
67986;SDS011;54767;53.800;15.956;2023-05-21T08:22:12;6.10;;;5.10;;
67986;SDS011;54767;53.800;15.956;2023-05-21T08:24:39;8.00;;;5.20;;
67986;SDS011;54767;53.800;15.956;2023-05-21T08:27:06;10.10;;;5.50;;
67986;SDS011;54767;53.800;15.956;2023-05-21T08:29:33;7.70;;;5.70;;
67986;SDS011;54767;53.800;15.956;2023-05-21T08:32:00;8.90;;;5.70;;
67986;SDS011;54767;53.800;15.956;2023-05-21T08:34:27;8.60;;;5.80;;
67986;SDS011;54767;53.800;15.956;2023-05-21T08:36:54;9.20;;;5.60;;
67986;SDS011;54767;53.800;15.956;2023-05-21T08:39:22;6.60;;;6.00;;
67986;SDS011;54767;53.800;15.956;2023-05-21T08:41:49;6.30;;;5.60;;
67986;SDS011;54767;53.800;15.956;2023-05-21T08:44:20;7.10;;;5.50;;
67986;SDS011;54767;53.800;15.956;2023-05-21T08:46:51;6.90;;;6.20;;
67986;SDS011;54767;53.800;15.956;2023-05-21T08:49:21;7.30;;;6.10;;
67986;SDS011;54767;53.800;15.956;2023-05-21T08:51:53;8.00;;;6.00;;
67986;SDS011;54767;53.800;15.956;2023-05-21T08:54:21;6.30;;;5.50;;
67986;SDS011;54767;53.800;15.956;2023-05-21T08:56:49;9.00;;;5.70;;
67986;SDS011;54767;53.800;15.956;2023-05-21T08:59:18;9.30;;;5.90;;
67986;SDS011;54767;53.800;15.956;2023-05-21T09:01:47;7.10;;;5.80;;
67986;SDS011;54767;53.800;15.956;2023-05-21T09:04:15;7.80;;;5.50;;
67986;SDS011;54767;53.800;15.956;2023-05-21T09:06:47;7.50;;;5.80;;
67986;SDS011;54767;53.800;15.956;2023-05-21T09:09:22;7.80;;;5.90;;
67986;SDS011;54767;53.800;15.956;2023-05-21T09:11:53;7.70;;;5.60;;
67986;SDS011;54767;53.800;15.956;2023-05-21T09:14:20;7.60;;;5.50;;
67986;SDS011;54767;53.800;15.956;2023-05-21T09:16:49;8.40;;;5.70;;
67986;SDS011;54767;53.800;15.956;2023-05-21T09:19:18;7.30;;;5.80;;
67986;SDS011;54767;53.800;15.956;2023-05-21T09:21:46;7.50;;;5.80;;
67986;SDS011;54767;53.800;15.956;2023-05-21T09:24:17;6.50;;;5.70;;
67986;SDS011;54767;53.800;15.956;2023-05-21T09:26:48;7.30;;;5.70;;
67986;SDS011;54767;53.800;15.956;2023-05-21T09:29:15;6.30;;;5.60;;
67986;SDS011;54767;53.800;15.956;2023-05-21T09:31:43;7.00;;;5.90;;
67986;SDS011;54767;53.800;15.956;2023-05-21T09:34:11;7.30;;;6.50;;
67986;SDS011;54767;53.800;15.956;2023-05-21T09:36:39;6.70;;;5.80;;
67986;SDS011;54767;53.800;15.956;2023-05-21T09:39:07;8.40;;;5.60;;
67986;SDS011;54767;53.800;15.956;2023-05-21T09:41:56;6.40;;;5.60;;
67986;SDS011;54767;53.800;15.956;2023-05-21T09:44:24;9.20;;;5.80;;
67986;SDS011;54767;53.800;15.956;2023-05-21T09:46:55;8.30;;;5.50;;
67986;SDS011;54767;53.800;15.956;2023-05-21T09:49:26;7.50;;;5.70;;
67986;SDS011;54767;53.800;15.956;2023-05-21T09:51:56;6.70;;;5.60;;
67986;SDS011;54767;53.800;15.956;2023-05-21T09:54:24;9.40;;;5.80;;
67986;SDS011;54767;53.800;15.956;2023-05-21T09:56:56;8.00;;;5.30;;
67986;SDS011;54767;53.800;15.956;2023-05-21T09:59:34;7.30;;;5.90;;
67986;SDS011;54767;53.800;15.956;2023-05-21T10:02:25;9.40;;;5.90;;
67986;SDS011;54767;53.800;15.956;2023-05-21T10:05:14;7.10;;;5.30;;
67986;SDS011;54767;53.800;15.956;2023-05-21T11:03:59;5.50;;;4.80;;
67986;SDS011;54767;53.800;15.956;2023-05-21T11:06:32;6.80;;;5.00;;
67986;SDS011;54767;53.800;15.956;2023-05-21T11:09:18;8.80;;;5.50;;
67986;SDS011;54767;53.800;15.956;2023-05-21T11:11:51;8.00;;;5.10;;
67986;SDS011;54767;53.800;15.956;2023-05-21T11:20:16;6.60;;;5.10;;
67986;SDS011;54767;53.800;15.956;2023-05-21T11:22:48;5.40;;;4.90;;
67986;SDS011;54767;53.800;15.956;2023-05-21T11:25:19;5.70;;;4.60;;
67986;SDS011;54767;53.800;15.956;2023-05-21T11:34:40;5.50;;;5.00;;
67986;SDS011;54767;53.800;15.956;2023-05-21T11:48:16;5.60;;;5.10;;
67986;SDS011;54767;53.800;15.956;2023-05-21T11:50:46;6.20;;;5.10;;
67986;SDS011;54767;53.800;15.956;2023-05-21T11:53:25;6.90;;;5.20;;
67986;SDS011;54767;53.800;15.956;2023-05-21T11:55:58;6.20;;;5.10;;
67986;SDS011;54767;53.800;15.956;2023-05-21T12:40:07;5.40;;;4.90;;
67986;SDS011;54767;53.800;15.956;2023-05-21T12:42:42;6.60;;;4.90;;
67986;SDS011;54767;53.800;15.956;2023-05-21T12:45:11;7.80;;;5.20;;
67986;SDS011;54767;53.800;15.956;2023-05-21T12:47:40;6.90;;;5.00;;
67986;SDS011;54767;53.800;15.956;2023-05-21T12:53:09;6.00;;;4.90;;
67986;SDS011;54767;53.800;15.956;2023-05-21T12:55:39;5.40;;;4.80;;
67986;SDS011;54767;53.800;15.956;2023-05-21T12:58:12;5.60;;;4.90;;
67986;SDS011;54767;53.800;15.956;2023-05-21T13:00:41;6.60;;;4.80;;
67986;SDS011;54767;53.800;15.956;2023-05-21T13:03:45;7.50;;;5.10;;
67986;SDS011;54767;53.800;15.956;2023-05-21T13:10:09;7.90;;;4.90;;
67986;SDS011;54767;53.800;15.956;2023-05-21T13:13:13;6.20;;;5.00;;
67986;SDS011;54767;53.800;15.956;2023-05-21T13:15:42;6.70;;;4.70;;
67986;SDS011;54767;53.800;15.956;2023-05-21T13:22:06;7.80;;;5.10;;
67986;SDS011;54767;53.800;15.956;2023-05-21T13:24:36;5.50;;;5.00;;
67986;SDS011;54767;53.800;15.956;2023-05-21T13:27:11;5.70;;;5.10;;
67986;SDS011;54767;53.800;15.956;2023-05-21T13:30:06;6.40;;;5.70;;
67986;SDS011;54767;53.800;15.956;2023-05-21T13:32:35;7.20;;;5.10;;
67986;SDS011;54767;53.800;15.956;2023-05-21T13:35:02;6.60;;;5.40;;
67986;SDS011;54767;53.800;15.956;2023-05-21T13:37:30;6.70;;;5.50;;
67986;SDS011;54767;53.800;15.956;2023-05-21T13:40:05;8.00;;;5.40;;
67986;SDS011;54767;53.800;15.956;2023-05-21T13:42:33;7.10;;;5.30;;
67986;SDS011;54767;53.800;15.956;2023-05-21T13:45:03;6.10;;;5.50;;
67986;SDS011;54767;53.800;15.956;2023-05-21T13:47:32;5.30;;;4.80;;
67986;SDS011;54767;53.800;15.956;2023-05-21T13:49:59;6.70;;;5.40;;
67986;SDS011;54767;53.800;15.956;2023-05-21T13:52:26;6.70;;;5.60;;
67986;SDS011;54767;53.800;15.956;2023-05-21T13:54:53;8.00;;;5.10;;
67986;SDS011;54767;53.800;15.956;2023-05-21T13:57:20;7.20;;;5.50;;
67986;SDS011;54767;53.800;15.956;2023-05-21T13:59:48;5.40;;;4.80;;
67986;SDS011;54767;53.800;15.956;2023-05-21T14:02:16;5.80;;;5.00;;
67986;SDS011;54767;53.800;15.956;2023-05-21T14:04:43;6.70;;;4.90;;
67986;SDS011;54767;53.800;15.956;2023-05-21T14:07:10;4.90;;;4.30;;
67986;SDS011;54767;53.800;15.956;2023-05-21T14:09:37;5.80;;;4.90;;
67986;SDS011;54767;53.800;15.956;2023-05-21T14:12:07;6.80;;;5.20;;
67986;SDS011;54767;53.800;15.956;2023-05-21T14:14:34;6.00;;;5.10;;
67986;SDS011;54767;53.800;15.956;2023-05-21T14:17:02;6.10;;;4.90;;
67986;SDS011;54767;53.800;15.956;2023-05-21T14:19:30;5.90;;;5.10;;
67986;SDS011;54767;53.800;15.956;2023-05-21T14:21:57;5.60;;;4.70;;
67986;SDS011;54767;53.800;15.956;2023-05-21T14:24:25;5.50;;;4.80;;
67986;SDS011;54767;53.800;15.956;2023-05-21T14:26:52;10.30;;;6.60;;
67986;SDS011;54767;53.800;15.956;2023-05-21T14:29:19;8.10;;;6.20;;
67986;SDS011;54767;53.800;15.956;2023-05-21T14:31:47;6.30;;;5.40;;
67986;SDS011;54767;53.800;15.956;2023-05-21T14:34:14;5.50;;;4.80;;
67986;SDS011;54767;53.800;15.956;2023-05-21T14:36:41;5.60;;;5.00;;
67986;SDS011;54767;53.800;15.956;2023-05-21T14:39:08;13.40;;;5.90;;
67986;SDS011;54767;53.800;15.956;2023-05-21T14:41:37;9.00;;;4.80;;
67986;SDS011;54767;53.800;15.956;2023-05-21T14:44:05;8.90;;;5.20;;
67986;SDS011;54767;53.800;15.956;2023-05-21T14:46:32;6.80;;;4.90;;
67986;SDS011;54767;53.800;15.956;2023-05-21T14:48:59;7.00;;;4.60;;
67986;SDS011;54767;53.800;15.956;2023-05-21T14:51:26;6.50;;;4.50;;
67986;SDS011;54767;53.800;15.956;2023-05-21T14:53:54;7.40;;;5.00;;
67986;SDS011;54767;53.800;15.956;2023-05-21T14:56:23;7.00;;;4.40;;
67986;SDS011;54767;53.800;15.956;2023-05-21T14:58:52;7.00;;;4.80;;
67986;SDS011;54767;53.800;15.956;2023-05-21T15:01:23;7.50;;;4.80;;
67986;SDS011;54767;53.800;15.956;2023-05-21T15:03:51;6.30;;;4.80;;
67986;SDS011;54767;53.800;15.956;2023-05-21T15:06:18;6.50;;;5.20;;
67986;SDS011;54767;53.800;15.956;2023-05-21T15:08:46;6.80;;;5.30;;
67986;SDS011;54767;53.800;15.956;2023-05-21T15:11:14;5.50;;;5.00;;
67986;SDS011;54767;53.800;15.956;2023-05-21T15:13:42;5.30;;;4.40;;
67986;SDS011;54767;53.800;15.956;2023-05-21T15:16:11;6.10;;;4.70;;
67986;SDS011;54767;53.800;15.956;2023-05-21T15:18:44;7.80;;;5.30;;
67986;SDS011;54767;53.800;15.956;2023-05-21T15:21:12;12.50;;;5.50;;
67986;SDS011;54767;53.800;15.956;2023-05-21T15:23:40;6.20;;;4.80;;
67986;SDS011;54767;53.800;15.956;2023-05-21T15:26:15;7.40;;;5.20;;
67986;SDS011;54767;53.800;15.956;2023-05-21T15:28:43;6.50;;;5.40;;
67986;SDS011;54767;53.800;15.956;2023-05-21T15:31:13;7.00;;;4.90;;
67986;SDS011;54767;53.800;15.956;2023-05-21T15:33:50;5.70;;;4.70;;
67986;SDS011;54767;53.800;15.956;2023-05-21T15:36:17;5.20;;;4.80;;
67986;SDS011;54767;53.800;15.956;2023-05-21T15:38:44;6.80;;;4.90;;
67986;SDS011;54767;53.800;15.956;2023-05-21T15:41:11;7.00;;;5.10;;
67986;SDS011;54767;53.800;15.956;2023-05-21T15:43:38;5.00;;;4.60;;
67986;SDS011;54767;53.800;15.956;2023-05-21T15:46:05;4.50;;;4.10;;
67986;SDS011;54767;53.800;15.956;2023-05-21T15:48:32;7.20;;;4.60;;
67986;SDS011;54767;53.800;15.956;2023-05-21T15:51:02;7.10;;;4.80;;
67986;SDS011;54767;53.800;15.956;2023-05-21T15:54:23;6.80;;;4.90;;
67986;SDS011;54767;53.800;15.956;2023-05-21T15:56:50;6.00;;;5.00;;
67986;SDS011;54767;53.800;15.956;2023-05-21T15:59:17;7.70;;;4.60;;
67986;SDS011;54767;53.800;15.956;2023-05-21T16:01:45;5.10;;;4.40;;
67986;SDS011;54767;53.800;15.956;2023-05-21T16:04:13;5.50;;;4.70;;
67986;SDS011;54767;53.800;15.956;2023-05-21T16:06:42;6.90;;;4.70;;
67986;SDS011;54767;53.800;15.956;2023-05-21T16:09:09;7.30;;;5.30;;
67986;SDS011;54767;53.800;15.956;2023-05-21T16:11:37;11.30;;;5.20;;
67986;SDS011;54767;53.800;15.956;2023-05-21T16:14:04;7.70;;;5.20;;
67986;SDS011;54767;53.800;15.956;2023-05-21T16:16:32;5.30;;;4.10;;
67986;SDS011;54767;53.800;15.956;2023-05-21T16:19:00;6.30;;;5.50;;
67986;SDS011;54767;53.800;15.956;2023-05-21T16:21:27;9.20;;;5.60;;
67986;SDS011;54767;53.800;15.956;2023-05-21T16:23:54;6.70;;;5.30;;
67986;SDS011;54767;53.800;15.956;2023-05-21T16:26:21;8.30;;;6.30;;
67986;SDS011;54767;53.800;15.956;2023-05-21T16:28:48;11.20;;;7.20;;
67986;SDS011;54767;53.800;15.956;2023-05-21T16:31:15;9.40;;;6.40;;
67986;SDS011;54767;53.800;15.956;2023-05-21T16:33:42;6.30;;;5.10;;
67986;SDS011;54767;53.800;15.956;2023-05-21T16:36:09;7.10;;;5.30;;
67986;SDS011;54767;53.800;15.956;2023-05-21T16:38:36;5.70;;;4.80;;
67986;SDS011;54767;53.800;15.956;2023-05-21T16:41:04;6.00;;;4.50;;
67986;SDS011;54767;53.800;15.956;2023-05-21T16:43:31;5.90;;;4.90;;
67986;SDS011;54767;53.800;15.956;2023-05-21T16:45:58;9.20;;;5.70;;
67986;SDS011;54767;53.800;15.956;2023-05-21T16:48:25;8.40;;;6.40;;
67986;SDS011;54767;53.800;15.956;2023-05-21T16:50:52;13.80;;;8.20;;
67986;SDS011;54767;53.800;15.956;2023-05-21T16:53:19;9.80;;;7.10;;
67986;SDS011;54767;53.800;15.956;2023-05-21T16:55:46;11.30;;;7.90;;
67986;SDS011;54767;53.800;15.956;2023-05-21T16:58:13;11.20;;;7.90;;
67986;SDS011;54767;53.800;15.956;2023-05-21T17:00:40;9.40;;;6.30;;
67986;SDS011;54767;53.800;15.956;2023-05-21T17:03:07;6.70;;;5.80;;
67986;SDS011;54767;53.800;15.956;2023-05-21T17:05:34;8.00;;;6.10;;